sensor_id;sensor_type;location;lat;lon;timestamp;P1;durP1;ratioP1;P2;durP2;ratioP2
72261;SDS011;60173;52.112;8.648;2022-10-16T00:00:36;8.95;;;6.00;;
72261;SDS011;60173;52.112;8.648;2022-10-16T00:03:04;13.38;;;8.38;;
72261;SDS011;60173;52.112;8.648;2022-10-16T00:05:31;13.02;;;9.43;;
72261;SDS011;60173;52.112;8.648;2022-10-16T00:07:58;12.00;;;7.82;;
72261;SDS011;60173;52.112;8.648;2022-10-16T00:10:24;11.32;;;7.35;;
72261;SDS011;60173;52.112;8.648;2022-10-16T00:12:50;9.77;;;7.47;;
72261;SDS011;60173;52.112;8.648;2022-10-16T00:15:17;10.77;;;7.43;;
72261;SDS011;60173;52.112;8.648;2022-10-16T00:17:43;9.43;;;6.97;;
72261;SDS011;60173;52.112;8.648;2022-10-16T00:20:09;9.25;;;6.68;;
72261;SDS011;60173;52.112;8.648;2022-10-16T00:22:36;14.98;;;7.15;;
72261;SDS011;60173;52.112;8.648;2022-10-16T00:25:02;12.38;;;8.93;;
72261;SDS011;60173;52.112;8.648;2022-10-16T00:27:29;10.25;;;7.38;;
72261;SDS011;60173;52.112;8.648;2022-10-16T00:29:55;12.93;;;7.43;;
72261;SDS011;60173;52.112;8.648;2022-10-16T00:32:21;10.82;;;7.22;;
72261;SDS011;60173;52.112;8.648;2022-10-16T00:34:48;11.75;;;8.60;;
72261;SDS011;60173;52.112;8.648;2022-10-16T00:37:14;17.27;;;9.88;;
72261;SDS011;60173;52.112;8.648;2022-10-16T00:39:41;12.27;;;8.73;;
72261;SDS011;60173;52.112;8.648;2022-10-16T00:42:09;12.65;;;8.65;;
72261;SDS011;60173;52.112;8.648;2022-10-16T00:44:50;10.65;;;8.02;;
72261;SDS011;60173;52.112;8.648;2022-10-16T00:47:22;9.95;;;7.03;;
72261;SDS011;60173;52.112;8.648;2022-10-16T00:49:55;11.20;;;7.75;;
72261;SDS011;60173;52.112;8.648;2022-10-16T00:52:27;15.68;;;8.68;;
72261;SDS011;60173;52.112;8.648;2022-10-16T00:54:54;11.95;;;8.55;;
72261;SDS011;60173;52.112;8.648;2022-10-16T00:57:22;13.77;;;9.25;;
72261;SDS011;60173;52.112;8.648;2022-10-16T00:59:49;10.40;;;8.10;;
72261;SDS011;60173;52.112;8.648;2022-10-16T01:02:16;11.98;;;8.52;;
72261;SDS011;60173;52.112;8.648;2022-10-16T01:04:48;13.38;;;9.20;;
72261;SDS011;60173;52.112;8.648;2022-10-16T01:10:30;11.75;;;8.18;;
72261;SDS011;60173;52.112;8.648;2022-10-16T01:13:04;10.80;;;7.65;;
72261;SDS011;60173;52.112;8.648;2022-10-16T01:15:41;16.90;;;9.15;;
72261;SDS011;60173;52.112;8.648;2022-10-16T01:18:18;18.85;;;10.10;;
72261;SDS011;60173;52.112;8.648;2022-10-16T01:21:05;15.38;;;9.80;;
72261;SDS011;60173;52.112;8.648;2022-10-16T01:26:48;13.60;;;8.32;;
72261;SDS011;60173;52.112;8.648;2022-10-16T01:29:17;14.50;;;9.45;;
72261;SDS011;60173;52.112;8.648;2022-10-16T01:31:53;15.00;;;9.18;;
72261;SDS011;60173;52.112;8.648;2022-10-16T01:34:27;13.25;;;8.85;;
72261;SDS011;60173;52.112;8.648;2022-10-16T01:37:05;16.05;;;8.02;;
72261;SDS011;60173;52.112;8.648;2022-10-16T01:39:36;14.23;;;7.93;;
72261;SDS011;60173;52.112;8.648;2022-10-16T01:42:09;11.07;;;8.23;;
72261;SDS011;60173;52.112;8.648;2022-10-16T01:44:39;10.53;;;7.30;;
72261;SDS011;60173;52.112;8.648;2022-10-16T01:47:07;10.43;;;7.32;;
72261;SDS011;60173;52.112;8.648;2022-10-16T01:49:36;10.15;;;7.32;;
72261;SDS011;60173;52.112;8.648;2022-10-16T01:52:06;12.50;;;7.60;;
72261;SDS011;60173;52.112;8.648;2022-10-16T01:54:37;10.43;;;8.30;;
72261;SDS011;60173;52.112;8.648;2022-10-16T01:57:08;12.02;;;7.82;;
72261;SDS011;60173;52.112;8.648;2022-10-16T01:59:38;11.63;;;7.75;;
72261;SDS011;60173;52.112;8.648;2022-10-16T02:02:09;11.43;;;7.78;;
72261;SDS011;60173;52.112;8.648;2022-10-16T02:04:38;12.93;;;8.30;;
72261;SDS011;60173;52.112;8.648;2022-10-16T02:07:09;11.63;;;7.88;;
72261;SDS011;60173;52.112;8.648;2022-10-16T02:09:36;14.15;;;8.35;;
72261;SDS011;60173;52.112;8.648;2022-10-16T02:12:06;11.55;;;7.75;;
72261;SDS011;60173;52.112;8.648;2022-10-16T02:14:39;15.52;;;8.63;;
72261;SDS011;60173;52.112;8.648;2022-10-16T02:17:13;10.13;;;6.90;;
72261;SDS011;60173;52.112;8.648;2022-10-16T02:19:41;12.60;;;7.88;;
72261;SDS011;60173;52.112;8.648;2022-10-16T02:22:09;12.45;;;8.77;;
72261;SDS011;60173;52.112;8.648;2022-10-16T02:24:57;12.00;;;7.88;;
72261;SDS011;60173;52.112;8.648;2022-10-16T02:27:51;12.38;;;7.25;;
72261;SDS011;60173;52.112;8.648;2022-10-16T02:30:31;12.25;;;7.50;;
72261;SDS011;60173;52.112;8.648;2022-10-16T02:33:02;13.57;;;8.27;;
72261;SDS011;60173;52.112;8.648;2022-10-16T02:35:33;14.43;;;7.95;;
72261;SDS011;60173;52.112;8.648;2022-10-16T02:38:00;11.60;;;7.88;;
72261;SDS011;60173;52.112;8.648;2022-10-16T02:40:27;15.45;;;9.23;;
72261;SDS011;60173;52.112;8.648;2022-10-16T02:42:54;15.70;;;9.18;;
72261;SDS011;60173;52.112;8.648;2022-10-16T02:45:21;12.55;;;8.57;;
72261;SDS011;60173;52.112;8.648;2022-10-16T02:47:49;11.90;;;8.63;;
72261;SDS011;60173;52.112;8.648;2022-10-16T02:50:15;12.20;;;8.52;;
72261;SDS011;60173;52.112;8.648;2022-10-16T02:52:42;12.02;;;8.40;;
72261;SDS011;60173;52.112;8.648;2022-10-16T02:55:08;11.95;;;8.13;;
72261;SDS011;60173;52.112;8.648;2022-10-16T02:57:35;14.85;;;8.68;;
72261;SDS011;60173;52.112;8.648;2022-10-16T03:00:01;12.25;;;7.82;;
72261;SDS011;60173;52.112;8.648;2022-10-16T03:02:28;13.25;;;7.75;;
72261;SDS011;60173;52.112;8.648;2022-10-16T03:04:54;11.63;;;7.97;;
72261;SDS011;60173;52.112;8.648;2022-10-16T03:07:20;12.82;;;8.13;;
72261;SDS011;60173;52.112;8.648;2022-10-16T03:09:47;14.65;;;8.32;;
72261;SDS011;60173;52.112;8.648;2022-10-16T03:12:13;14.45;;;8.80;;
72261;SDS011;60173;52.112;8.648;2022-10-16T03:14:39;11.40;;;8.48;;
72261;SDS011;60173;52.112;8.648;2022-10-16T03:17:06;14.60;;;7.47;;
72261;SDS011;60173;52.112;8.648;2022-10-16T03:19:32;12.63;;;8.25;;
72261;SDS011;60173;52.112;8.648;2022-10-16T03:21:58;12.40;;;7.93;;
72261;SDS011;60173;52.112;8.648;2022-10-16T03:24:25;9.50;;;7.07;;
72261;SDS011;60173;52.112;8.648;2022-10-16T03:26:51;13.75;;;8.68;;
72261;SDS011;60173;52.112;8.648;2022-10-16T03:29:17;14.88;;;8.52;;
72261;SDS011;60173;52.112;8.648;2022-10-16T03:31:44;12.00;;;8.55;;
72261;SDS011;60173;52.112;8.648;2022-10-16T03:34:10;15.77;;;9.90;;
72261;SDS011;60173;52.112;8.648;2022-10-16T03:36:36;14.15;;;9.45;;
72261;SDS011;60173;52.112;8.648;2022-10-16T03:39:03;12.13;;;8.38;;
72261;SDS011;60173;52.112;8.648;2022-10-16T03:41:29;13.02;;;8.73;;
72261;SDS011;60173;52.112;8.648;2022-10-16T03:43:55;20.55;;;8.85;;
72261;SDS011;60173;52.112;8.648;2022-10-16T03:46:22;13.23;;;8.30;;
72261;SDS011;60173;52.112;8.648;2022-10-16T03:48:48;15.43;;;8.90;;
72261;SDS011;60173;52.112;8.648;2022-10-16T03:51:14;12.65;;;7.80;;
72261;SDS011;60173;52.112;8.648;2022-10-16T03:53:41;13.60;;;8.25;;
72261;SDS011;60173;52.112;8.648;2022-10-16T03:56:07;11.38;;;8.23;;
72261;SDS011;60173;52.112;8.648;2022-10-16T03:58:33;13.63;;;7.82;;
72261;SDS011;60173;52.112;8.648;2022-10-16T04:01:00;12.43;;;7.93;;
72261;SDS011;60173;52.112;8.648;2022-10-16T04:03:26;10.68;;;7.25;;
72261;SDS011;60173;52.112;8.648;2022-10-16T04:05:53;13.85;;;8.65;;
72261;SDS011;60173;52.112;8.648;2022-10-16T04:08:20;18.15;;;8.95;;
72261;SDS011;60173;52.112;8.648;2022-10-16T04:10:46;13.15;;;8.82;;
72261;SDS011;60173;52.112;8.648;2022-10-16T04:13:12;12.88;;;7.93;;
72261;SDS011;60173;52.112;8.648;2022-10-16T04:15:39;11.40;;;7.40;;
72261;SDS011;60173;52.112;8.648;2022-10-16T04:18:05;15.18;;;8.07;;
72261;SDS011;60173;52.112;8.648;2022-10-16T04:20:32;10.77;;;7.03;;
72261;SDS011;60173;52.112;8.648;2022-10-16T04:22:59;14.35;;;8.27;;
72261;SDS011;60173;52.112;8.648;2022-10-16T04:25:25;12.10;;;7.35;;
72261;SDS011;60173;52.112;8.648;2022-10-16T04:27:52;11.88;;;6.93;;
72261;SDS011;60173;52.112;8.648;2022-10-16T04:30:19;11.85;;;7.88;;
72261;SDS011;60173;52.112;8.648;2022-10-16T04:32:49;12.43;;;7.90;;
72261;SDS011;60173;52.112;8.648;2022-10-16T04:35:19;11.73;;;7.28;;
72261;SDS011;60173;52.112;8.648;2022-10-16T04:37:46;12.38;;;7.40;;
72261;SDS011;60173;52.112;8.648;2022-10-16T04:40:13;11.48;;;6.78;;
72261;SDS011;60173;52.112;8.648;2022-10-16T04:42:40;12.73;;;6.43;;
72261;SDS011;60173;52.112;8.648;2022-10-16T04:45:06;10.77;;;6.97;;
72261;SDS011;60173;52.112;8.648;2022-10-16T04:47:37;12.27;;;7.00;;
72261;SDS011;60173;52.112;8.648;2022-10-16T04:50:03;9.85;;;7.45;;
72261;SDS011;60173;52.112;8.648;2022-10-16T04:52:30;11.85;;;6.93;;
72261;SDS011;60173;52.112;8.648;2022-10-16T04:54:57;10.88;;;6.65;;
72261;SDS011;60173;52.112;8.648;2022-10-16T04:57:23;9.98;;;6.50;;
72261;SDS011;60173;52.112;8.648;2022-10-16T04:59:50;8.07;;;5.95;;
72261;SDS011;60173;52.112;8.648;2022-10-16T05:02:17;7.22;;;5.15;;
72261;SDS011;60173;52.112;8.648;2022-10-16T05:04:43;10.20;;;5.30;;
72261;SDS011;60173;52.112;8.648;2022-10-16T05:07:09;15.23;;;5.05;;
72261;SDS011;60173;52.112;8.648;2022-10-16T05:09:36;8.48;;;5.05;;
72261;SDS011;60173;52.112;8.648;2022-10-16T05:12:02;6.53;;;4.60;;
72261;SDS011;60173;52.112;8.648;2022-10-16T05:14:29;8.07;;;4.78;;
72261;SDS011;60173;52.112;8.648;2022-10-16T05:16:55;10.02;;;4.57;;
72261;SDS011;60173;52.112;8.648;2022-10-16T05:19:22;6.30;;;4.10;;
72261;SDS011;60173;52.112;8.648;2022-10-16T05:21:53;8.38;;;4.45;;
72261;SDS011;60173;52.112;8.648;2022-10-16T05:24:19;5.20;;;3.83;;
72261;SDS011;60173;52.112;8.648;2022-10-16T05:26:46;11.40;;;3.65;;
72261;SDS011;60173;52.112;8.648;2022-10-16T05:29:12;7.00;;;3.42;;
72261;SDS011;60173;52.112;8.648;2022-10-16T05:31:38;8.55;;;4.32;;
72261;SDS011;60173;52.112;8.648;2022-10-16T05:34:05;10.15;;;4.03;;
72261;SDS011;60173;52.112;8.648;2022-10-16T05:36:31;5.60;;;3.40;;
72261;SDS011;60173;52.112;8.648;2022-10-16T05:38:57;5.07;;;3.33;;
72261;SDS011;60173;52.112;8.648;2022-10-16T05:41:24;5.30;;;3.72;;
72261;SDS011;60173;52.112;8.648;2022-10-16T05:43:50;7.75;;;3.10;;
72261;SDS011;60173;52.112;8.648;2022-10-16T05:46:18;6.03;;;3.10;;
72261;SDS011;60173;52.112;8.648;2022-10-16T05:48:45;4.00;;;3.28;;
72261;SDS011;60173;52.112;8.648;2022-10-16T05:51:13;6.50;;;3.20;;
72261;SDS011;60173;52.112;8.648;2022-10-16T05:53:40;6.90;;;2.80;;
72261;SDS011;60173;52.112;8.648;2022-10-16T05:56:09;8.57;;;2.72;;
72261;SDS011;60173;52.112;8.648;2022-10-16T05:58:37;3.65;;;2.90;;
72261;SDS011;60173;52.112;8.648;2022-10-16T06:01:05;10.38;;;2.85;;
72261;SDS011;60173;52.112;8.648;2022-10-16T06:03:33;3.83;;;2.60;;
72261;SDS011;60173;52.112;8.648;2022-10-16T06:06:07;7.68;;;2.78;;
72261;SDS011;60173;52.112;8.648;2022-10-16T06:08:44;3.13;;;2.40;;
72261;SDS011;60173;52.112;8.648;2022-10-16T06:11:11;3.53;;;2.92;;
72261;SDS011;60173;52.112;8.648;2022-10-16T06:13:40;3.65;;;2.33;;
72261;SDS011;60173;52.112;8.648;2022-10-16T06:16:07;7.20;;;2.17;;
72261;SDS011;60173;52.112;8.648;2022-10-16T06:18:34;4.75;;;2.08;;
72261;SDS011;60173;52.112;8.648;2022-10-16T06:21:06;6.07;;;2.30;;
72261;SDS011;60173;52.112;8.648;2022-10-16T06:23:36;2.30;;;2.10;;
72261;SDS011;60173;52.112;8.648;2022-10-16T06:26:09;2.50;;;1.95;;
72261;SDS011;60173;52.112;8.648;2022-10-16T06:31:05;4.10;;;2.15;;
72261;SDS011;60173;52.112;8.648;2022-10-16T06:33:33;3.53;;;1.75;;
72261;SDS011;60173;52.112;8.648;2022-10-16T06:36:01;4.78;;;2.00;;
72261;SDS011;60173;52.112;8.648;2022-10-16T06:38:29;3.72;;;1.80;;
72261;SDS011;60173;52.112;8.648;2022-10-16T06:40:56;2.22;;;1.65;;
72261;SDS011;60173;52.112;8.648;2022-10-16T06:43:22;4.22;;;1.80;;
72261;SDS011;60173;52.112;8.648;2022-10-16T06:45:52;3.03;;;1.75;;
72261;SDS011;60173;52.112;8.648;2022-10-16T06:48:20;2.90;;;1.73;;
72261;SDS011;60173;52.112;8.648;2022-10-16T06:53:26;1.95;;;1.52;;
72261;SDS011;60173;52.112;8.648;2022-10-16T06:55:54;1.52;;;1.42;;
72261;SDS011;60173;52.112;8.648;2022-10-16T06:58:21;3.65;;;1.83;;
72261;SDS011;60173;52.112;8.648;2022-10-16T07:00:47;3.25;;;1.70;;
72261;SDS011;60173;52.112;8.648;2022-10-16T07:03:14;3.28;;;1.50;;
72261;SDS011;60173;52.112;8.648;2022-10-16T07:05:41;3.88;;;1.60;;
72261;SDS011;60173;52.112;8.648;2022-10-16T07:08:08;2.85;;;1.45;;
72261;SDS011;60173;52.112;8.648;2022-10-16T07:10:35;1.92;;;1.30;;
72261;SDS011;60173;52.112;8.648;2022-10-16T07:13:01;2.05;;;1.50;;
72261;SDS011;60173;52.112;8.648;2022-10-16T07:15:28;3.80;;;1.50;;
72261;SDS011;60173;52.112;8.648;2022-10-16T07:17:54;2.78;;;1.25;;
72261;SDS011;60173;52.112;8.648;2022-10-16T07:20:20;9.55;;;1.98;;
72261;SDS011;60173;52.112;8.648;2022-10-16T07:22:47;2.75;;;1.60;;
72261;SDS011;60173;52.112;8.648;2022-10-16T07:25:13;5.53;;;1.30;;
72261;SDS011;60173;52.112;8.648;2022-10-16T07:27:39;2.60;;;1.40;;
72261;SDS011;60173;52.112;8.648;2022-10-16T07:30:06;3.63;;;1.40;;
72261;SDS011;60173;52.112;8.648;2022-10-16T07:32:34;1.42;;;1.13;;
72261;SDS011;60173;52.112;8.648;2022-10-16T07:35:00;1.65;;;1.20;;
72261;SDS011;60173;52.112;8.648;2022-10-16T07:37:27;2.00;;;1.20;;
72261;SDS011;60173;52.112;8.648;2022-10-16T07:39:54;3.92;;;1.50;;
72261;SDS011;60173;52.112;8.648;2022-10-16T07:42:20;2.80;;;1.20;;
72261;SDS011;60173;52.112;8.648;2022-10-16T07:44:46;1.88;;;1.17;;
72261;SDS011;60173;52.112;8.648;2022-10-16T07:47:13;3.60;;;1.30;;
72261;SDS011;60173;52.112;8.648;2022-10-16T07:49:39;3.90;;;1.52;;
72261;SDS011;60173;52.112;8.648;2022-10-16T07:52:05;2.78;;;1.40;;
72261;SDS011;60173;52.112;8.648;2022-10-16T07:54:32;7.80;;;1.60;;
72261;SDS011;60173;52.112;8.648;2022-10-16T07:56:58;2.35;;;1.17;;
72261;SDS011;60173;52.112;8.648;2022-10-16T07:59:24;2.67;;;1.40;;
72261;SDS011;60173;52.112;8.648;2022-10-16T08:01:51;4.50;;;1.42;;
72261;SDS011;60173;52.112;8.648;2022-10-16T08:04:17;2.00;;;1.23;;
72261;SDS011;60173;52.112;8.648;2022-10-16T08:06:44;2.33;;;1.38;;
72261;SDS011;60173;52.112;8.648;2022-10-16T08:09:10;3.30;;;1.55;;
72261;SDS011;60173;52.112;8.648;2022-10-16T08:11:36;2.45;;;1.52;;
72261;SDS011;60173;52.112;8.648;2022-10-16T08:14:03;5.65;;;1.50;;
72261;SDS011;60173;52.112;8.648;2022-10-16T08:16:29;2.17;;;1.60;;
72261;SDS011;60173;52.112;8.648;2022-10-16T08:18:55;1.52;;;1.40;;
72261;SDS011;60173;52.112;8.648;2022-10-16T08:21:22;5.90;;;1.50;;
72261;SDS011;60173;52.112;8.648;2022-10-16T08:23:50;3.55;;;1.42;;
72261;SDS011;60173;52.112;8.648;2022-10-16T08:26:23;2.35;;;1.30;;
72261;SDS011;60173;52.112;8.648;2022-10-16T08:28:50;3.05;;;1.35;;
72261;SDS011;60173;52.112;8.648;2022-10-16T08:31:16;3.60;;;1.50;;
72261;SDS011;60173;52.112;8.648;2022-10-16T08:33:48;2.15;;;1.38;;
72261;SDS011;60173;52.112;8.648;2022-10-16T08:36:14;4.55;;;1.50;;
72261;SDS011;60173;52.112;8.648;2022-10-16T08:38:41;4.93;;;1.50;;
72261;SDS011;60173;52.112;8.648;2022-10-16T08:43:57;2.35;;;1.52;;
72261;SDS011;60173;52.112;8.648;2022-10-16T08:46:57;3.60;;;1.40;;
72261;SDS011;60173;52.112;8.648;2022-10-16T08:49:47;2.28;;;1.30;;
72261;SDS011;60173;52.112;8.648;2022-10-16T08:52:29;2.42;;;1.48;;
72261;SDS011;60173;52.112;8.648;2022-10-16T08:54:57;3.55;;;1.30;;
72261;SDS011;60173;52.112;8.648;2022-10-16T08:57:24;5.43;;;1.50;;
72261;SDS011;60173;52.112;8.648;2022-10-16T08:59:52;2.40;;;1.00;;
72261;SDS011;60173;52.112;8.648;2022-10-16T09:02:38;2.55;;;1.10;;
72261;SDS011;60173;52.112;8.648;2022-10-16T09:07:56;4.10;;;1.10;;
72261;SDS011;60173;52.112;8.648;2022-10-16T09:10:49;3.03;;;1.23;;
72261;SDS011;60173;52.112;8.648;2022-10-16T09:13:29;2.80;;;0.80;;
72261;SDS011;60173;52.112;8.648;2022-10-16T09:16:29;2.80;;;1.13;;
72261;SDS011;60173;52.112;8.648;2022-10-16T09:19:03;2.80;;;1.08;;
72261;SDS011;60173;52.112;8.648;2022-10-16T09:21:40;3.13;;;1.30;;
72261;SDS011;60173;52.112;8.648;2022-10-16T09:24:19;1.65;;;0.90;;
72261;SDS011;60173;52.112;8.648;2022-10-16T09:29:20;4.43;;;1.30;;
72261;SDS011;60173;52.112;8.648;2022-10-16T09:31:47;3.65;;;1.20;;
72261;SDS011;60173;52.112;8.648;2022-10-16T09:37:01;3.85;;;1.10;;
72261;SDS011;60173;52.112;8.648;2022-10-16T09:39:30;3.42;;;1.17;;
72261;SDS011;60173;52.112;8.648;2022-10-16T09:42:10;7.00;;;1.20;;
72261;SDS011;60173;52.112;8.648;2022-10-16T09:44:41;1.85;;;1.00;;
72261;SDS011;60173;52.112;8.648;2022-10-16T09:47:23;6.80;;;1.30;;
72261;SDS011;60173;52.112;8.648;2022-10-16T09:49:56;5.03;;;1.30;;
72261;SDS011;60173;52.112;8.648;2022-10-16T09:52:25;2.75;;;1.02;;
72261;SDS011;60173;52.112;8.648;2022-10-16T09:54:52;1.83;;;1.10;;
72261;SDS011;60173;52.112;8.648;2022-10-16T09:57:20;3.17;;;1.40;;
72261;SDS011;60173;52.112;8.648;2022-10-16T09:59:51;16.15;;;1.33;;
72261;SDS011;60173;52.112;8.648;2022-10-16T10:02:19;4.72;;;1.13;;
72261;SDS011;60173;52.112;8.648;2022-10-16T10:04:56;3.75;;;1.35;;
72261;SDS011;60173;52.112;8.648;2022-10-16T10:07:33;3.25;;;0.93;;
72261;SDS011;60173;52.112;8.648;2022-10-16T10:10:05;1.75;;;0.90;;
72261;SDS011;60173;52.112;8.648;2022-10-16T10:12:45;3.00;;;1.20;;
72261;SDS011;60173;52.112;8.648;2022-10-16T10:15:12;2.83;;;1.10;;
72261;SDS011;60173;52.112;8.648;2022-10-16T10:17:46;5.80;;;1.38;;
72261;SDS011;60173;52.112;8.648;2022-10-16T10:22:52;5.10;;;1.05;;
72261;SDS011;60173;52.112;8.648;2022-10-16T10:25:24;2.20;;;0.93;;
72261;SDS011;60173;52.112;8.648;2022-10-16T10:28:06;4.80;;;1.00;;
72261;SDS011;60173;52.112;8.648;2022-10-16T10:35:49;3.60;;;0.90;;
72261;SDS011;60173;52.112;8.648;2022-10-16T10:41:26;3.95;;;0.90;;
72261;SDS011;60173;52.112;8.648;2022-10-16T10:44:19;5.03;;;0.90;;
72261;SDS011;60173;52.112;8.648;2022-10-16T10:52:42;4.30;;;1.20;;
72261;SDS011;60173;52.112;8.648;2022-10-16T10:58:01;2.92;;;0.98;;
72261;SDS011;60173;52.112;8.648;2022-10-16T11:00:45;4.47;;;1.00;;
72261;SDS011;60173;52.112;8.648;2022-10-16T11:06:26;2.88;;;1.20;;
72261;SDS011;60173;52.112;8.648;2022-10-16T11:09:06;1.80;;;0.77;;
72261;SDS011;60173;52.112;8.648;2022-10-16T11:11:45;3.80;;;1.00;;
72261;SDS011;60173;52.112;8.648;2022-10-16T11:14:24;5.05;;;1.13;;
72261;SDS011;60173;52.112;8.648;2022-10-16T11:16:57;3.50;;;0.93;;
72261;SDS011;60173;52.112;8.648;2022-10-16T11:27:19;2.97;;;1.02;;
72261;SDS011;60173;52.112;8.648;2022-10-16T11:32:28;2.03;;;0.95;;
72261;SDS011;60173;52.112;8.648;2022-10-16T11:35:02;2.25;;;0.95;;
72261;SDS011;60173;52.112;8.648;2022-10-16T11:37:38;5.97;;;1.10;;
72261;SDS011;60173;52.112;8.648;2022-10-16T11:40:21;2.35;;;0.80;;
72261;SDS011;60173;52.112;8.648;2022-10-16T11:42:57;4.72;;;1.35;;
72261;SDS011;60173;52.112;8.648;2022-10-16T11:45:36;4.18;;;1.10;;
72261;SDS011;60173;52.112;8.648;2022-10-16T11:53:21;8.95;;;1.65;;
72261;SDS011;60173;52.112;8.648;2022-10-16T11:55:49;3.17;;;1.35;;
72261;SDS011;60173;52.112;8.648;2022-10-16T11:58:32;3.55;;;1.33;;
72261;SDS011;60173;52.112;8.648;2022-10-16T12:03:48;5.68;;;1.23;;
72261;SDS011;60173;52.112;8.648;2022-10-16T12:09:11;1.95;;;0.93;;
72261;SDS011;60173;52.112;8.648;2022-10-16T12:11:45;2.47;;;0.90;;
72261;SDS011;60173;52.112;8.648;2022-10-16T12:16:39;2.65;;;1.02;;
72261;SDS011;60173;52.112;8.648;2022-10-16T12:19:16;4.97;;;1.17;;
72261;SDS011;60173;52.112;8.648;2022-10-16T12:21:44;2.63;;;1.00;;
72261;SDS011;60173;52.112;8.648;2022-10-16T12:27:28;4.82;;;1.00;;
72261;SDS011;60173;52.112;8.648;2022-10-16T12:29:57;1.85;;;0.85;;
72261;SDS011;60173;52.112;8.648;2022-10-16T12:32:32;2.83;;;0.90;;
72261;SDS011;60173;52.112;8.648;2022-10-16T12:35:18;5.28;;;0.88;;
72261;SDS011;60173;52.112;8.648;2022-10-16T12:37:47;2.67;;;0.80;;
72261;SDS011;60173;52.112;8.648;2022-10-16T12:40:15;3.00;;;0.93;;
72261;SDS011;60173;52.112;8.648;2022-10-16T12:42:51;2.38;;;0.68;;
72261;SDS011;60173;52.112;8.648;2022-10-16T12:45:31;3.08;;;1.13;;
72261;SDS011;60173;52.112;8.648;2022-10-16T12:48:00;2.70;;;1.00;;
72261;SDS011;60173;52.112;8.648;2022-10-16T12:52:57;4.68;;;0.80;;
72261;SDS011;60173;52.112;8.648;2022-10-16T12:55:24;3.72;;;1.13;;
72261;SDS011;60173;52.112;8.648;2022-10-16T13:00:45;3.42;;;1.10;;
72261;SDS011;60173;52.112;8.648;2022-10-16T13:03:40;4.90;;;1.10;;
72261;SDS011;60173;52.112;8.648;2022-10-16T13:06:20;3.75;;;1.00;;
72261;SDS011;60173;52.112;8.648;2022-10-16T13:09:02;2.63;;;1.00;;
72261;SDS011;60173;52.112;8.648;2022-10-16T13:14:32;4.47;;;1.15;;
72261;SDS011;60173;52.112;8.648;2022-10-16T13:28:33;3.20;;;1.00;;
72261;SDS011;60173;52.112;8.648;2022-10-16T13:31:01;6.13;;;1.23;;
72261;SDS011;60173;52.112;8.648;2022-10-16T13:33:39;3.85;;;1.15;;
72261;SDS011;60173;52.112;8.648;2022-10-16T13:36:06;2.42;;;0.80;;
72261;SDS011;60173;52.112;8.648;2022-10-16T13:38:34;3.78;;;1.08;;
72261;SDS011;60173;52.112;8.648;2022-10-16T13:41:06;3.03;;;1.30;;
72261;SDS011;60173;52.112;8.648;2022-10-16T13:43:50;3.20;;;1.10;;
72261;SDS011;60173;52.112;8.648;2022-10-16T13:46:19;3.55;;;1.15;;
72261;SDS011;60173;52.112;8.648;2022-10-16T13:49:00;6.15;;;1.30;;
72261;SDS011;60173;52.112;8.648;2022-10-16T13:51:28;2.17;;;1.00;;
72261;SDS011;60173;52.112;8.648;2022-10-16T13:53:56;2.80;;;1.00;;
72261;SDS011;60173;52.112;8.648;2022-10-16T13:56:27;1.70;;;0.80;;
72261;SDS011;60173;52.112;8.648;2022-10-16T13:59:03;2.92;;;1.00;;
72261;SDS011;60173;52.112;8.648;2022-10-16T14:01:33;4.95;;;1.10;;
72261;SDS011;60173;52.112;8.648;2022-10-16T14:04:06;4.17;;;1.10;;
72261;SDS011;60173;52.112;8.648;2022-10-16T14:06:35;2.55;;;1.17;;
72261;SDS011;60173;52.112;8.648;2022-10-16T14:09:12;2.67;;;0.90;;
72261;SDS011;60173;52.112;8.648;2022-10-16T14:11:48;5.40;;;1.13;;
72261;SDS011;60173;52.112;8.648;2022-10-16T14:14:16;5.18;;;1.20;;
72261;SDS011;60173;52.112;8.648;2022-10-16T14:16:43;3.60;;;1.10;;
72261;SDS011;60173;52.112;8.648;2022-10-16T14:19:15;2.60;;;1.40;;
72261;SDS011;60173;52.112;8.648;2022-10-16T14:21:46;4.90;;;1.40;;
72261;SDS011;60173;52.112;8.648;2022-10-16T14:24:46;2.42;;;1.10;;
72261;SDS011;60173;52.112;8.648;2022-10-16T14:27:23;2.45;;;1.13;;
72261;SDS011;60173;52.112;8.648;2022-10-16T14:32:41;1.85;;;1.00;;
72261;SDS011;60173;52.112;8.648;2022-10-16T14:35:56;3.92;;;1.27;;
72261;SDS011;60173;52.112;8.648;2022-10-16T14:38:18;2.90;;;1.23;;
72261;SDS011;60173;52.112;8.648;2022-10-16T14:40:46;3.45;;;0.90;;
72261;SDS011;60173;52.112;8.648;2022-10-16T14:43:19;1.92;;;1.00;;
72261;SDS011;60173;52.112;8.648;2022-10-16T14:45:51;4.68;;;1.00;;
72261;SDS011;60173;52.112;8.648;2022-10-16T14:48:20;3.92;;;1.10;;
72261;SDS011;60173;52.112;8.648;2022-10-16T14:50:46;3.03;;;0.90;;
72261;SDS011;60173;52.112;8.648;2022-10-16T14:53:13;1.55;;;1.00;;
72261;SDS011;60173;52.112;8.648;2022-10-16T14:55:41;1.95;;;1.20;;
72261;SDS011;60173;52.112;8.648;2022-10-16T14:58:26;1.50;;;0.90;;
72261;SDS011;60173;52.112;8.648;2022-10-16T15:00:52;2.47;;;0.70;;
72261;SDS011;60173;52.112;8.648;2022-10-16T15:03:18;3.33;;;1.52;;
72261;SDS011;60173;52.112;8.648;2022-10-16T15:05:45;3.97;;;1.00;;
72261;SDS011;60173;52.112;8.648;2022-10-16T15:08:11;3.83;;;1.10;;
72261;SDS011;60173;52.112;8.648;2022-10-16T15:10:38;1.95;;;1.02;;
72261;SDS011;60173;52.112;8.648;2022-10-16T15:13:08;2.15;;;1.25;;
72261;SDS011;60173;52.112;8.648;2022-10-16T15:15:39;3.75;;;1.00;;
72261;SDS011;60173;52.112;8.648;2022-10-16T15:18:08;1.65;;;1.13;;
72261;SDS011;60173;52.112;8.648;2022-10-16T15:20:36;3.40;;;1.20;;
72261;SDS011;60173;52.112;8.648;2022-10-16T15:23:04;2.40;;;1.27;;
72261;SDS011;60173;52.112;8.648;2022-10-16T15:25:37;2.10;;;1.00;;
72261;SDS011;60173;52.112;8.648;2022-10-16T15:28:07;2.80;;;1.27;;
72261;SDS011;60173;52.112;8.648;2022-10-16T15:30:35;3.40;;;1.20;;
72261;SDS011;60173;52.112;8.648;2022-10-16T15:33:02;2.58;;;1.13;;
72261;SDS011;60173;52.112;8.648;2022-10-16T15:35:29;2.30;;;1.02;;
72261;SDS011;60173;52.112;8.648;2022-10-16T15:37:56;2.88;;;0.90;;
72261;SDS011;60173;52.112;8.648;2022-10-16T15:40:22;2.28;;;1.10;;
72261;SDS011;60173;52.112;8.648;2022-10-16T15:42:49;2.40;;;1.00;;
72261;SDS011;60173;52.112;8.648;2022-10-16T15:45:15;2.88;;;1.05;;
72261;SDS011;60173;52.112;8.648;2022-10-16T15:47:42;2.03;;;0.90;;
72261;SDS011;60173;52.112;8.648;2022-10-16T15:50:11;2.00;;;1.05;;
72261;SDS011;60173;52.112;8.648;2022-10-16T15:52:39;2.53;;;0.93;;
72261;SDS011;60173;52.112;8.648;2022-10-16T15:55:07;2.25;;;0.88;;
72261;SDS011;60173;52.112;8.648;2022-10-16T15:57:35;1.98;;;1.00;;
72261;SDS011;60173;52.112;8.648;2022-10-16T16:00:02;2.88;;;1.10;;
72261;SDS011;60173;52.112;8.648;2022-10-16T16:02:34;1.75;;;1.10;;
72261;SDS011;60173;52.112;8.648;2022-10-16T16:05:00;2.90;;;1.15;;
72261;SDS011;60173;52.112;8.648;2022-10-16T16:07:27;1.27;;;0.80;;
72261;SDS011;60173;52.112;8.648;2022-10-16T16:09:53;1.98;;;1.27;;
72261;SDS011;60173;52.112;8.648;2022-10-16T16:12:20;3.25;;;1.00;;
72261;SDS011;60173;52.112;8.648;2022-10-16T16:14:47;1.85;;;1.00;;
72261;SDS011;60173;52.112;8.648;2022-10-16T16:17:13;3.13;;;1.10;;
72261;SDS011;60173;52.112;8.648;2022-10-16T16:19:40;2.25;;;1.20;;
72261;SDS011;60173;52.112;8.648;2022-10-16T16:22:06;3.72;;;1.77;;
72261;SDS011;60173;52.112;8.648;2022-10-16T16:24:36;2.58;;;1.42;;
72261;SDS011;60173;52.112;8.648;2022-10-16T16:27:02;3.75;;;1.77;;
72261;SDS011;60173;52.112;8.648;2022-10-16T16:29:33;2.85;;;1.10;;
72261;SDS011;60173;52.112;8.648;2022-10-16T16:32:00;3.33;;;1.20;;
72261;SDS011;60173;52.112;8.648;2022-10-16T16:34:27;3.58;;;1.40;;